Time;durP1;ratioP1;P1;durP2;ratioP2;P2;SDS_P1;SDS_P2;PMS_P1;PMS_P2;Temp;Humidity;BMP_temperature;BMP_pressure;BME280_temperature;BME280_humidity;BME280_pressure;Samples;Min_cycle;Max_cycle;Signal;HPM_P1;HPM_P2
2022/04/29 00:01:18;;;;;;;2.53;1.10;;;20.50;51.40;;;;;;4998655;28;20046;-57
2022/04/29 00:03:44;;;;;;;2.78;0.90;;;20.50;51.40;;;;;;4998306;28;20418;-57
2022/04/29 00:06:09;;;;;;;3.28;1.15;;;20.50;51.40;;;;;;4998734;28;20047;-57
2022/04/29 00:08:36;;;;;;;4.95;1.55;;;20.50;51.40;;;;;;4998546;28;20077;-58
2022/04/29 00:11:01;;;;;;;2.72;1.10;;;20.50;51.40;;;;;;4998155;28;20046;-57
2022/04/29 00:13:27;;;;;;;4.72;1.20;;;20.50;51.40;;;;;;4998733;28;20054;-57
2022/04/29 00:15:52;;;;;;;3.35;1.10;;;20.50;51.40;;;;;;4998387;28;20085;-57
2022/04/29 00:18:18;;;;;;;4.40;1.08;;;20.50;51.40;;;;;;4998472;28;20046;-57
2022/04/29 00:20:44;;;;;;;3.22;1.27;;;20.50;51.40;;;;;;4998591;28;20089;-57
2022/04/29 00:23:10;;;;;;;4.15;1.33;;;20.50;51.30;;;;;;4998182;28;20066;-57
2022/04/29 00:25:36;;;;;;;4.30;1.50;;;20.50;51.30;;;;;;4998009;28;20406;-57
2022/04/29 00:28:03;;;;;;;3.17;1.55;;;20.40;51.20;;;;;;4998651;28;20496;-57
2022/04/29 00:30:29;;;;;;;3.95;1.10;;;20.40;51.20;;;;;;4998481;28;20402;-57
2022/04/29 00:32:54;;;;;;;3.63;1.10;;;20.40;51.20;;;;;;4997737;28;20502;-57
2022/04/29 00:35:20;;;;;;;3.45;1.48;;;20.40;51.20;;;;;;4997903;28;20042;-57
2022/04/29 00:37:51;;;;;;;4.05;1.42;;;20.40;51.20;;;;;;4998265;28;20042;-57
2022/04/29 00:40:18;;;;;;;3.85;1.48;;;20.40;51.20;;;;;;4997835;28;20390;-57
2022/04/29 00:42:45;;;;;;;2.10;1.10;;;20.40;51.10;;;;;;4998547;28;20055;-57
2022/04/29 00:45:11;;;;;;;4.20;1.35;;;20.40;51.20;;;;;;4997769;28;20312;-57
2022/04/29 00:47:37;;;;;;;3.50;1.25;;;20.40;51.20;;;;;;4998656;28;20138;-57
2022/04/29 00:50:03;;;;;;;3.50;1.10;;;20.30;51.10;;;;;;4996970;28;20534;-57
2022/04/29 00:52:28;;;;;;;2.33;1.20;;;20.40;51.10;;;;;;4994440;28;20047;-57
2022/04/29 00:54:56;;;;;;;3.17;1.38;;;20.30;51.00;;;;;;4993689;28;20556;-57
2022/04/29 00:57:28;;;;;;;3.13;1.30;;;20.30;51.00;;;;;;4994056;28;20042;-57
2022/04/29 01:00:00;;;;;;;3.47;1.80;;;20.30;51.00;;;;;;4994485;28;20050;-57
2022/04/29 01:02:25;;;;;;;3.78;1.20;;;20.30;51.00;;;;;;4995621;28;20038;-57
2022/04/29 01:05:17;;;;;;;2.95;1.10;;;20.30;51.00;;;;;;4994734;28;20104;-57
2022/04/29 01:07:43;;;;;;;2.13;0.95;;;20.30;51.00;;;;;;4994762;28;20482;-57
2022/04/29 01:10:12;;;;;;;4.50;1.30;;;20.30;51.00;;;;;;4995188;28;20050;-57
2022/04/29 01:12:39;;;;;;;1.90;1.15;;;20.30;51.00;;;;;;4994783;28;20105;-57
2022/04/29 01:15:07;;;;;;;3.10;1.27;;;20.30;51.00;;;;;;4993545;28;20046;-58
2022/04/29 01:17:34;;;;;;;3.38;1.63;;;20.30;51.00;;;;;;4994808;28;20042;-57
2022/04/29 01:20:04;;;;;;;3.10;1.13;;;20.30;51.00;;;;;;4994438;28;20053;-57
2022/04/29 01:22:31;;;;;;;2.75;1.10;;;20.30;50.90;;;;;;4994334;28;20490;-57
2022/04/29 01:24:57;;;;;;;4.57;1.45;;;20.20;50.90;;;;;;4994591;28;20050;-57
2022/04/29 01:27:22;;;;;;;4.38;1.30;;;20.20;50.90;;;;;;4994058;28;20042;-57
2022/04/29 01:29:48;;;;;;;2.63;1.25;;;20.20;50.90;;;;;;4994450;28;20046;-57
2022/04/29 01:32:13;;;;;;;3.10;1.20;;;20.20;50.80;;;;;;4993280;28;20046;-57
2022/04/29 01:34:39;;;;;;;3.85;1.50;;;20.20;50.90;;;;;;4992525;28;20050;-57
2022/04/29 01:37:04;;;;;;;2.35;1.30;;;20.20;50.90;;;;;;4994848;28;20042;-57
2022/04/29 01:39:31;;;;;;;3.45;1.23;;;20.20;50.90;;;;;;4994233;28;20042;-57
2022/04/29 01:41:56;;;;;;;3.35;1.30;;;20.20;51.60;;;;;;4993724;28;20042;-57
2022/04/29 01:44:22;;;;;;;2.83;1.27;;;20.20;50.90;;;;;;4994355;28;20065;-57
2022/04/29 01:46:47;;;;;;;6.30;1.38;;;20.20;50.80;;;;;;4994128;28;20085;-57
2022/04/29 01:49:15;;;;;;;2.75;1.33;;;20.20;50.80;;;;;;4993405;28;20038;-57
2022/04/29 01:51:41;;;;;;;4.15;1.17;;;20.20;50.70;;;;;;4994079;28;20085;-57
2022/04/29 01:54:10;;;;;;;3.85;1.20;;;20.20;50.80;;;;;;4993927;28;20078;-57
2022/04/29 01:56:37;;;;;;;3.40;1.10;;;20.20;50.70;;;;;;4994007;28;20096;-57
2022/04/29 01:59:04;;;;;;;3.45;1.05;;;20.20;50.70;;;;;;4994014;28;20069;-57
2022/04/29 02:01:30;;;;;;;1.98;1.00;;;20.20;50.60;;;;;;4993644;28;20081;-57
2022/04/29 02:03:56;;;;;;;4.10;1.30;;;20.20;50.60;;;;;;4992929;28;20093;-57
2022/04/29 02:06:25;;;;;;;3.42;1.20;;;20.20;50.60;;;;;;4993847;28;20057;-57
2022/04/29 02:08:51;;;;;;;3.33;1.00;;;20.20;50.60;;;;;;4993621;28;20054;-57
2022/04/29 02:11:19;;;;;;;2.75;1.20;;;20.20;50.60;;;;;;4993269;28;20046;-57
2022/04/29 02:13:45;;;;;;;2.50;1.05;;;20.20;50.60;;;;;;4993317;28;20529;-57
2022/04/29 02:16:11;;;;;;;1.95;0.90;;;20.20;50.70;;;;;;4993889;28;20089;-57
2022/04/29 02:18:37;;;;;;;3.78;1.27;;;20.20;50.70;;;;;;4993277;28;20510;-57
2022/04/29 02:21:02;;;;;;;2.05;1.00;;;20.20;50.80;;;;;;4993583;28;20129;-57
2022/04/29 02:23:28;;;;;;;3.13;1.02;;;20.20;50.80;;;;;;4992967;28;20096;-57
2022/04/29 02:25:54;;;;;;;2.67;1.00;;;20.20;50.80;;;;;;4991608;28;20050;-57
2022/04/29 02:28:20;;;;;;;3.10;1.20;;;20.20;50.80;;;;;;4992540;28;20049;-57
2022/04/29 02:30:46;;;;;;;1.70;1.13;;;20.20;50.80;;;;;;4993011;28;20050;-57
2022/04/29 02:33:11;;;;;;;2.15;0.90;;;20.20;50.80;;;;;;4992996;28;20054;-57
2022/04/29 02:35:37;;;;;;;1.90;1.08;;;20.20;50.80;;;;;;4993631;28;20065;-57
2022/04/29 02:38:02;;;;;;;3.75;1.10;;;20.20;50.80;;;;;;4992567;28;20042;-57
2022/04/29 02:40:28;;;;;;;2.92;0.93;;;20.30;50.80;;;;;;4993508;28;20054;-57
2022/04/29 02:42:53;;;;;;;3.17;1.13;;;20.30;50.80;;;;;;4993170;28;20046;-57
2022/04/29 02:45:19;;;;;;;2.25;1.13;;;20.30;50.80;;;;;;4992751;28;20061;-58
2022/04/29 02:47:45;;;;;;;2.58;1.33;;;20.30;50.80;;;;;;4993276;28;20398;-57
2022/04/29 02:50:10;;;;;;;4.65;1.17;;;20.30;50.80;;;;;;4993236;28;20393;-57
2022/04/29 02:52:36;;;;;;;2.20;0.98;;;20.30;50.80;;;;;;4992954;28;20046;-57
2022/04/29 02:55:02;;;;;;;1.50;0.82;;;20.30;50.80;;;;;;4992446;28;20082;-57
2022/04/29 02:57:27;;;;;;;3.25;0.93;;;20.30;50.80;;;;;;4992706;28;20061;-57
2022/04/29 02:59:53;;;;;;;3.05;0.90;;;20.30;50.70;;;;;;4992475;28;20455;-57
2022/04/29 03:02:18;;;;;;;1.38;1.00;;;20.30;50.80;;;;;;4993166;28;20057;-57
2022/04/29 03:04:44;;;;;;;3.28;1.17;;;20.30;50.70;;;;;;4992737;28;20100;-56
2022/04/29 03:07:09;;;;;;;3.05;1.23;;;20.30;50.80;;;;;;4992449;28;20042;-57
2022/04/29 03:09:35;;;;;;;2.97;0.90;;;20.30;50.80;;;;;;4993168;28;20509;-57
2022/04/29 03:12:00;;;;;;;3.47;0.98;;;20.30;50.70;;;;;;4992303;28;20053;-57
2022/04/29 03:14:26;;;;;;;2.13;0.82;;;20.30;50.70;;;;;;4991816;28;20046;-57
2022/04/29 03:16:51;;;;;;;2.40;0.98;;;20.30;50.70;;;;;;4992768;28;20058;-57
2022/04/29 03:19:17;;;;;;;4.15;1.08;;;20.30;51.40;;;;;;4992353;28;20051;-56
2022/04/29 03:21:42;;;;;;;2.05;0.90;;;20.30;50.70;;;;;;4992289;28;20621;-57
2022/04/29 03:24:08;;;;;;;3.10;1.20;;;20.30;50.70;;;;;;4992853;28;20058;-57
2022/04/29 03:26:35;;;;;;;3.50;1.02;;;20.40;50.70;;;;;;4992764;28;20058;-57
2022/04/29 03:29:01;;;;;;;1.48;0.85;;;20.40;50.70;;;;;;4992151;28;20081;-57
2022/04/29 03:31:26;;;;;;;2.08;0.90;;;20.40;50.80;;;;;;4992616;28;20140;-57
2022/04/29 03:33:52;;;;;;;2.10;1.00;;;20.40;50.70;;;;;;4991829;28;20061;-57
2022/04/29 03:36:17;;;;;;;2.38;1.08;;;20.30;50.70;;;;;;4992182;28;20054;-58
2022/04/29 03:38:43;;;;;;;2.60;0.88;;;20.40;50.70;;;;;;4992374;28;20049;-57
2022/04/29 03:41:09;;;;;;;2.72;1.00;;;20.40;50.70;;;;;;4991361;28;20144;-57
2022/04/29 03:43:34;;;;;;;2.22;1.08;;;20.40;50.70;;;;;;4992896;28;20030;-57
2022/04/29 03:46:00;;;;;;;1.88;1.10;;;20.40;50.70;;;;;;4992419;28;20482;-57
2022/04/29 03:48:25;;;;;;;3.38;1.33;;;20.40;50.70;;;;;;4992296;28;20427;-57
2022/04/29 03:50:51;;;;;;;2.60;1.00;;;20.40;50.70;;;;;;4992163;28;20056;-57
2022/04/29 03:53:16;;;;;;;1.98;0.90;;;20.40;50.70;;;;;;4991733;28;20038;-57
2022/04/29 03:55:42;;;;;;;2.63;0.90;;;20.40;50.70;;;;;;4991443;28;20097;-57
2022/04/29 03:58:08;;;;;;;2.40;0.90;;;20.40;50.70;;;;;;4992825;28;20498;-57
2022/04/29 04:00:34;;;;;;;1.95;0.70;;;20.40;50.70;;;;;;4989002;28;20094;-58
2022/04/29 04:03:00;;;;;;;2.60;0.90;;;20.40;50.70;;;;;;4972423;28;20097;-57
2022/04/29 04:05:25;;;;;;;2.17;1.00;;;20.40;50.60;;;;;;4972388;28;20038;-57
2022/04/29 04:07:51;;;;;;;2.15;0.82;;;20.40;50.70;;;;;;4972336;28;20046;-57
2022/04/29 04:10:16;;;;;;;2.15;0.73;;;20.40;50.60;;;;;;4972438;28;20094;-57
2022/04/29 04:12:49;;;;;;;1.88;1.00;;;20.40;50.70;;;;;;4972913;28;20049;-57
2022/04/29 04:15:19;;;;;;;2.92;1.00;;;20.40;50.60;;;;;;4972538;28;20050;-57
2022/04/29 04:17:44;;;;;;;1.60;0.80;;;20.40;50.60;;;;;;4972172;28;20057;-57
2022/04/29 04:20:11;;;;;;;3.05;0.80;;;20.40;50.60;;;;;;4973157;28;20051;-57
2022/04/29 04:22:36;;;;;;;2.55;0.95;;;20.40;50.60;;;;;;4979356;28;20479;-57
2022/04/29 04:25:10;;;;;;;2.15;1.00;;;20.40;50.70;;;;;;4982438;28;20054;-57
2022/04/29 04:27:35;;;;;;;3.58;1.00;;;20.40;50.70;;;;;;4996502;28;20134;-57
2022/04/29 04:30:01;;;;;;;1.85;0.93;;;20.40;50.70;;;;;;4995564;28;20125;-57
2022/04/29 04:32:27;;;;;;;2.92;0.90;;;20.40;50.70;;;;;;4995210;28;20610;-57
2022/04/29 04:34:54;;;;;;;2.92;1.00;;;20.40;50.70;;;;;;4995560;28;20045;-57
2022/04/29 04:37:26;;;;;;;5.68;1.35;;;20.50;50.80;;;;;;4995245;28;20050;-57
2022/04/29 04:39:51;;;;;;;5.82;1.50;;;20.50;50.80;;;;;;4995422;28;20074;-57
2022/04/29 04:42:17;;;;;;;5.25;1.00;;;20.40;50.70;;;;;;4995609;28;20081;-57
2022/04/29 04:44:47;;;;;;;7.15;1.30;;;20.40;50.80;;;;;;4995132;28;20097;-57
2022/04/29 04:47:12;;;;;;;4.53;1.13;;;20.50;50.90;;;;;;4995314;28;20057;-57
2022/04/29 04:49:38;;;;;;;4.47;1.55;;;20.40;50.80;;;;;;4995372;28;20046;-57
2022/04/29 04:52:04;;;;;;;7.05;1.40;;;20.40;50.90;;;;;;4995068;28;20045;-57
2022/04/29 04:54:29;;;;;;;6.93;1.42;;;20.40;51.00;;;;;;4995433;28;20041;-57
2022/04/29 04:56:55;;;;;;;8.07;1.52;;;20.40;51.00;;;;;;4994677;28;20402;-57
2022/04/29 04:59:21;;;;;;;5.72;1.85;;;20.40;51.10;;;;;;4994563;28;20046;-57
2022/04/29 05:01:46;;;;;;;7.15;1.35;;;20.40;51.10;;;;;;4995025;28;20140;-57
2022/04/29 05:04:12;;;;;;;2.40;1.00;;;20.50;51.20;;;;;;4995428;28;20406;-57
2022/04/29 05:06:37;;;;;;;3.55;1.10;;;20.50;51.30;;;;;;4994861;28;20046;-58
2022/04/29 05:09:06;;;;;;;4.45;1.33;;;20.40;51.20;;;;;;4995026;28;20038;-57
2022/04/29 05:11:32;;;;;;;4.88;1.20;;;20.50;51.40;;;;;;4994662;28;20121;-57
2022/04/29 05:13:58;;;;;;;7.20;1.30;;;20.40;51.50;;;;;;4994325;28;21021;-57
2022/04/29 05:16:24;;;;;;;7.75;1.27;;;20.50;51.60;;;;;;4994980;28;20514;-57
2022/04/29 05:18:49;;;;;;;6.22;1.30;;;20.50;51.70;;;;;;4993992;28;20073;-57
2022/04/29 05:21:15;;;;;;;7.55;1.10;;;20.50;51.70;;;;;;4992884;28;20084;-57
2022/04/29 05:23:41;;;;;;;5.18;1.27;;;20.50;51.70;;;;;;4994653;28;20045;-58
2022/04/29 05:26:06;;;;;;;2.70;1.08;;;20.50;51.70;;;;;;4994198;28;20445;-57
2022/04/29 05:28:32;;;;;;;3.22;1.27;;;20.60;51.90;;;;;;4994128;28;20058;-57
2022/04/29 05:30:57;;;;;;;8.63;1.30;;;20.60;51.80;;;;;;4994030;28;20129;-57
2022/04/29 05:33:23;;;;;;;6.05;1.33;;;20.60;51.80;;;;;;4992162;28;20054;-57
2022/04/29 05:35:49;;;;;;;4.95;1.08;;;20.60;51.80;;;;;;4993436;28;20069;-57
2022/04/29 05:38:14;;;;;;;6.20;1.27;;;20.60;51.70;;;;;;4983682;28;20113;-57
2022/04/29 05:43:24;;;;;;;7.53;1.30;;;20.70;51.80;;;;;;4974581;28;20129;-57
2022/04/29 05:45:49;;;;;;;5.65;1.17;;;20.70;51.90;;;;;;4975234;28;20138;-57
2022/04/29 05:48:15;;;;;;;7.28;1.85;;;20.70;51.90;;;;;;4975195;28;20130;-58
2022/04/29 05:50:41;;;;;;;3.65;1.13;;;20.70;51.90;;;;;;4975172;28;20054;-58
2022/04/29 05:53:06;;;;;;;6.00;1.23;;;20.70;51.90;;;;;;4975341;28;20486;-58
2022/04/29 05:55:32;;;;;;;5.70;1.30;;;20.80;52.00;;;;;;4974710;28;20101;-57
2022/04/29 05:57:57;;;;;;;5.32;1.38;;;20.80;52.00;;;;;;4975259;28;20579;-57
2022/04/29 06:00:23;;;;;;;5.50;1.60;;;20.80;52.00;;;;;;4993878;28;20069;-58
2022/04/29 06:02:48;;;;;;;6.15;1.10;;;20.80;51.90;;;;;;4993999;28;20038;-58
2022/04/29 06:05:14;;;;;;;5.50;1.67;;;20.80;51.90;;;;;;4994840;28;20129;-58
2022/04/29 06:07:41;;;;;;;6.22;1.50;;;20.80;52.00;;;;;;4993881;28;20050;-57
2022/04/29 06:10:07;;;;;;;6.00;1.40;;;20.80;52.10;;;;;;4993818;28;20105;-58
2022/04/29 06:12:40;;;;;;;9.18;1.80;;;20.80;52.10;;;;;;4994397;28;20050;-57
2022/04/29 06:15:06;;;;;;;7.40;1.73;;;20.90;52.20;;;;;;4994509;28;20084;-57
2022/04/29 06:17:31;;;;;;;6.85;1.58;;;20.90;52.30;;;;;;4993990;28;20046;-57
2022/04/29 06:19:57;;;;;;;4.53;1.40;;;20.90;52.40;;;;;;4993706;28;20065;-57
2022/04/29 06:22:23;;;;;;;6.53;1.52;;;20.90;52.50;;;;;;4994142;28;20046;-57
2022/04/29 06:24:50;;;;;;;5.18;1.65;;;20.90;52.50;;;;;;4993415;28;20068;-57
2022/04/29 06:27:15;;;;;;;5.93;1.73;;;20.90;52.60;;;;;;4994167;28;20046;-60
2022/04/29 06:29:41;;;;;;;11.27;1.67;;;20.90;52.60;;;;;;4993301;28;20053;-59
2022/04/29 06:32:07;;;;;;;11.60;2.38;;;21.00;52.60;;;;;;4993426;28;20054;-57
2022/04/29 06:34:33;;;;;;;9.13;1.90;;;21.00;52.60;;;;;;4993856;28;20049;-59
2022/04/29 06:36:58;;;;;;;6.30;1.30;;;21.00;52.80;;;;;;4994030;28;20678;-58
2022/04/29 06:39:24;;;;;;;8.05;1.92;;;21.00;52.80;;;;;;4993214;28;20078;-58
2022/04/29 06:41:49;;;;;;;7.30;1.60;;;21.00;53.00;;;;;;4993031;28;20053;-57
2022/04/29 06:44:15;;;;;;;12.40;1.58;;;21.00;53.00;;;;;;4986409;28;20061;-57
2022/04/29 06:46:41;;;;;;;8.48;1.95;;;21.00;52.90;;;;;;4974192;28;20074;-57
2022/04/29 06:49:06;;;;;;;9.13;1.80;;;21.00;52.90;;;;;;4974214;28;20046;-58
2022/04/29 06:51:32;;;;;;;9.52;1.95;;;21.00;52.90;;;;;;4973982;28;20375;-57
2022/04/29 06:53:57;;;;;;;11.27;1.90;;;21.00;51.90;;;;;;4973930;28;20053;-57
2022/04/29 06:56:23;;;;;;;5.80;1.85;;;21.00;52.20;;;;;;4973932;28;20050;-57
2022/04/29 06:58:49;;;;;;;5.03;1.80;;;21.00;51.40;;;;;;4973492;28;20051;-58
2022/04/29 07:01:14;;;;;;;8.05;2.08;;;21.00;51.20;;;;;;4974144;28;20050;-57
2022/04/29 07:03:40;;;;;;;9.25;2.22;;;21.00;51.20;;;;;;4973623;28;20130;-58
2022/04/29 07:06:06;;;;;;;9.63;2.03;;;21.00;51.20;;;;;;4973580;28;20050;-57
2022/04/29 07:08:32;;;;;;;7.18;2.03;;;21.00;51.20;;;;;;4974296;28;20070;-57
2022/04/29 07:10:57;;;;;;;6.65;1.70;;;21.00;51.30;;;;;;4973707;28;20733;-57
2022/04/29 07:13:23;;;;;;;4.40;1.40;;;21.00;51.30;;;;;;4973610;28;20467;-58
2022/04/29 07:15:49;;;;;;;9.93;2.30;;;21.00;51.30;;;;;;4973632;28;20039;-57
2022/04/29 07:18:15;;;;;;;7.85;1.60;;;21.00;51.30;;;;;;4973786;28;20047;-57
2022/04/29 07:20:41;;;;;;;5.00;1.70;;;21.00;51.30;;;;;;4973113;28;20058;-57
2022/04/29 07:23:06;;;;;;;3.90;1.45;;;21.00;51.40;;;;;;4974020;28;20395;-57
2022/04/29 07:25:32;;;;;;;5.05;1.50;;;21.00;51.50;;;;;;4973493;28;20075;-58
2022/04/29 07:27:58;;;;;;;6.68;1.60;;;21.00;51.40;;;;;;4972892;28;20041;-57
2022/04/29 07:30:23;;;;;;;5.57;1.55;;;21.10;51.50;;;;;;4973709;28;20538;-57
2022/04/29 07:32:49;;;;;;;5.57;1.58;;;21.10;51.50;;;;;;4973019;28;20477;-57
2022/04/29 07:43:27;;;;;;;8.55;1.70;;;21.10;51.60;;;;;;4973846;28;20047;-57
2022/04/29 07:45:53;;;;;;;4.63;1.40;;;21.10;51.60;;;;;;4973331;28;20042;-57
2022/04/29 07:48:19;;;;;;;12.65;1.73;;;21.10;51.70;;;;;;4973283;28;20380;-57
2022/04/29 07:50:44;;;;;;;6.88;1.70;;;21.10;51.60;;;;;;4973385;28;20506;-57
2022/04/29 07:53:10;;;;;;;7.45;1.63;;;21.20;51.60;;;;;;4973314;28;20050;-56
2022/04/29 07:55:36;;;;;;;5.65;1.42;;;21.20;51.70;;;;;;4972651;28;20472;-57
2022/04/29 07:58:03;;;;;;;10.43;1.55;;;21.20;51.80;;;;;;4973222;28;20047;-57
2022/04/29 08:00:30;;;;;;;5.97;1.40;;;21.20;51.80;;;;;;4974232;28;20055;-56
2022/04/29 08:02:55;;;;;;;7.95;1.58;;;21.20;51.70;;;;;;4976964;28;20051;-57
2022/04/29 08:05:21;;;;;;;12.63;1.80;;;21.20;51.60;;;;;;4977663;28;20467;-57
2022/04/29 08:07:47;;;;;;;12.57;1.65;;;21.20;51.60;;;;;;4976677;28;20043;-56
2022/04/29 08:10:13;;;;;;;11.88;1.40;;;21.20;51.50;;;;;;4976822;28;20053;-56
2022/04/29 08:12:38;;;;;;;6.68;1.60;;;21.20;51.50;;;;;;4977035;28;20046;-56
2022/04/29 08:15:05;;;;;;;9.80;1.60;;;21.30;51.50;;;;;;4977006;28;20042;-56
2022/04/29 08:17:31;;;;;;;7.50;1.65;;;21.30;51.50;;;;;;4976773;28;20093;-56
2022/04/29 08:19:57;;;;;;;10.00;1.40;;;21.30;51.70;;;;;;4976561;28;20051;-56
2022/04/29 08:22:22;;;;;;;11.38;1.98;;;21.30;51.70;;;;;;4977263;28;20078;-56
2022/04/29 08:24:48;;;;;;;6.82;1.45;;;21.30;51.80;;;;;;4975841;28;20039;-56
2022/04/29 08:27:14;;;;;;;4.90;1.10;;;21.30;51.80;;;;;;4976929;28;20047;-56
2022/04/29 08:29:39;;;;;;;6.03;1.40;;;21.30;51.90;;;;;;4976393;28;20101;-56
2022/04/29 08:32:05;;;;;;;7.57;1.35;;;21.30;52.00;;;;;;4977132;28;20134;-56
2022/04/29 08:34:33;;;;;;;6.18;1.60;;;21.40;52.10;;;;;;4976500;28;20379;-55
2022/04/29 08:37:02;;;;;;;10.25;1.42;;;21.40;52.30;;;;;;4978603;28;20076;-56
2022/04/29 08:39:32;;;;;;;8.20;1.73;;;21.40;52.30;;;;;;4986980;28;20045;-56
2022/04/29 08:42:00;;;;;;;6.00;1.30;;;21.40;51.90;;;;;;4987372;28;20071;-56
2022/04/29 08:44:26;;;;;;;7.05;1.27;;;21.40;51.70;;;;;;4995274;28;20042;-57
2022/04/29 08:46:51;;;;;;;9.57;1.40;;;21.40;51.80;;;;;;4986000;28;20081;-57
2022/04/29 08:49:17;;;;;;;7.10;1.60;;;21.40;51.80;;;;;;4986648;28;20066;-57
2022/04/29 08:51:44;;;;;;;6.60;1.50;;;21.40;51.90;;;;;;4984935;28;20553;-57
2022/04/29 08:58:36;;;;;;;8.10;1.65;;;21.40;52.00;;;;;;4968064;28;20046;-56
2022/04/29 08:59:40;;;;;;;5.78;1.33;;;21.50;52.10;;;;;;4984858;28;20082;-56
2022/04/29 09:02:05;;;;;;;4.95;1.40;;;21.50;52.20;;;;;;4985531;28;20063;-56
2022/04/29 09:04:31;;;;;;;5.28;1.27;;;21.50;52.20;;;;;;4984819;28;21380;-56
2022/04/29 09:06:56;;;;;;;6.78;1.35;;;21.50;52.00;;;;;;4985929;28;20093;-56
2022/04/29 09:09:22;;;;;;;8.88;1.70;;;21.50;52.00;;;;;;4984992;28;20077;-56
2022/04/29 09:11:48;;;;;;;4.65;1.40;;;21.50;52.00;;;;;;4983293;28;20046;-56
2022/04/29 09:14:24;;;;;;;5.55;1.50;;;21.50;52.00;;;;;;4983824;28;20042;-56
2022/04/29 09:16:49;;;;;;;4.97;1.30;;;21.60;51.90;;;;;;4975825;28;20043;-55
2022/04/29 09:19:29;;;;;;;5.75;1.48;;;21.60;51.60;;;;;;4975564;28;20454;-55
2022/04/29 09:22:08;;;;;;;11.02;1.40;;;21.70;51.40;;;;;;4976054;28;20042;-56
2022/04/29 09:24:34;;;;;;;8.63;1.45;;;21.80;51.40;;;;;;4975625;28;20047;-56
2022/04/29 09:27:00;;;;;;;12.02;2.00;;;21.80;51.20;;;;;;4974791;28;20093;-56
2022/04/29 09:29:28;;;;;;;9.73;1.48;;;21.90;51.40;;;;;;4975567;28;20495;-55
2022/04/29 09:31:54;;;;;;;8.88;1.83;;;21.90;51.30;;;;;;4974964;28;20443;-56
2022/04/29 09:34:20;;;;;;;7.55;1.67;;;21.80;51.40;;;;;;4975122;28;20057;-56
2022/04/29 09:36:46;;;;;;;10.45;1.70;;;21.90;52.80;;;;;;4975311;28;20039;-55
2022/04/29 09:39:27;;;;;;;10.57;1.92;;;21.80;53.80;;;;;;4975305;28;20418;-56
2022/04/29 09:42:04;;;;;;;9.95;1.80;;;21.80;54.50;;;;;;4975408;28;20051;-56
2022/04/29 09:44:36;;;;;;;10.35;1.70;;;21.80;54.20;;;;;;4975693;28;20398;-56
2022/04/29 09:47:20;;;;;;;9.38;1.83;;;21.70;53.90;;;;;;4974796;28;20046;-56
2022/04/29 09:49:57;;;;;;;7.78;1.77;;;21.70;53.80;;;;;;4975191;28;20503;-56
2022/04/29 09:52:26;;;;;;;13.13;2.00;;;21.70;53.70;;;;;;4975412;28;20065;-56
2022/04/29 09:54:51;;;;;;;11.68;2.40;;;21.70;53.70;;;;;;4974759;28;20043;-55
2022/04/29 09:57:18;;;;;;;10.18;1.90;;;21.70;53.70;;;;;;4975592;28;20142;-56
2022/04/29 09:59:48;;;;;;;17.05;2.22;;;21.70;53.40;;;;;;4974816;28;20059;-56
2022/04/29 10:02:17;;;;;;;5.88;1.70;;;21.70;53.20;;;;;;4974859;28;20046;-56
2022/04/29 10:04:44;;;;;;;10.23;1.67;;;21.70;53.20;;;;;;4974985;28;20042;-56
2022/04/29 10:07:11;;;;;;;8.10;1.98;;;21.70;53.20;;;;;;4974875;28;20047;-55
2022/04/29 10:09:40;;;;;;;10.68;2.10;;;21.70;53.30;;;;;;4974439;28;20451;-56
2022/04/29 10:12:09;;;;;;;7.38;1.67;;;21.70;53.30;;;;;;4974688;28;20042;-56
2022/04/29 10:14:36;;;;;;;9.40;2.03;;;21.70;53.40;;;;;;4975209;28;20042;-56
2022/04/29 10:22:33;;;;;;;8.00;1.80;;;21.80;53.50;;;;;;4974719;28;20055;-56
2022/04/29 10:25:00;;;;;;;9.13;1.85;;;21.80;53.60;;;;;;4974249;28;20050;-56
2022/04/29 10:27:26;;;;;;;9.35;2.08;;;21.80;53.70;;;;;;4973901;28;20047;-56
2022/04/29 10:29:52;;;;;;;9.70;2.40;;;21.80;53.60;;;;;;4974578;28;20137;-55
2022/04/29 10:32:17;;;;;;;12.80;1.90;;;21.80;53.50;;;;;;4974602;28;20142;-55
2022/04/29 10:34:43;;;;;;;9.20;1.70;;;21.80;53.50;;;;;;4956964;28;20055;-55
2022/04/29 10:37:12;;;;;;;7.78;1.90;;;21.80;53.50;;;;;;4974216;28;20057;-56
2022/04/29 10:39:43;;;;;;;9.32;2.20;;;21.80;53.50;;;;;;4974600;28;20098;-56
2022/04/29 10:42:09;;;;;;;8.30;1.88;;;21.80;53.50;;;;;;4973142;28;20072;-56
2022/04/29 10:44:35;;;;;;;6.97;1.63;;;21.80;53.60;;;;;;4973874;28;20497;-56
2022/04/29 10:47:24;;;;;;;7.95;1.70;;;21.70;53.60;;;;;;4957387;28;20038;-56
2022/04/29 10:49:49;;;;;;;10.00;1.90;;;21.80;53.70;;;;;;4974460;28;20051;-55
2022/04/29 10:52:25;;;;;;;5.20;1.73;;;21.80;53.70;;;;;;4972623;28;20058;-56
2022/04/29 10:54:55;;;;;;;11.13;1.70;;;21.70;53.40;;;;;;4973820;28;20054;-56
2022/04/29 10:57:35;;;;;;;12.13;1.63;;;21.70;53.40;;;;;;4973955;28;20050;-56
2022/04/29 11:00:07;;;;;;;8.30;1.92;;;21.70;53.40;;;;;;4973138;28;20038;-56
2022/04/29 11:02:34;;;;;;;9.25;2.25;;;21.70;53.30;;;;;;4976507;28;20050;-57
2022/04/29 11:05:00;;;;;;;5.30;1.70;;;21.70;53.40;;;;;;4992505;28;20505;-56
2022/04/29 11:07:35;;;;;;;6.68;1.90;;;21.70;53.40;;;;;;4993633;28;20042;-56
2022/04/29 11:10:01;;;;;;;9.60;2.10;;;21.70;53.60;;;;;;4993033;28;20053;-56
2022/04/29 11:12:41;;;;;;;7.53;1.30;;;21.70;53.60;;;;;;4992983;28;20133;-56
2022/04/29 11:15:12;;;;;;;8.32;1.50;;;21.70;54.00;;;;;;4993657;28;20085;-55
2022/04/29 11:17:38;;;;;;;10.60;2.25;;;21.70;54.00;;;;;;4993616;28;20050;-55
2022/04/29 11:20:20;;;;;;;4.68;1.42;;;21.70;54.20;;;;;;4993050;28;20034;-55
2022/04/29 11:25:54;;;;;;;8.48;1.80;;;21.70;54.40;;;;;;4992188;28;20449;-55
2022/04/29 11:28:19;;;;;;;6.82;1.80;;;21.70;54.50;;;;;;4993118;28;20050;-55
2022/04/29 11:30:46;;;;;;;4.72;1.58;;;21.70;54.50;;;;;;4992736;28;20129;-55
2022/04/29 11:33:11;;;;;;;5.97;1.40;;;21.70;54.50;;;;;;4992227;28;20394;-55
2022/04/29 11:35:37;;;;;;;3.65;1.55;;;21.70;54.50;;;;;;4992419;28;20125;-55
2022/04/29 11:38:02;;;;;;;5.57;1.63;;;21.70;54.50;;;;;;4992660;28;20495;-55
2022/04/29 11:40:28;;;;;;;5.20;1.85;;;21.70;54.50;;;;;;4992608;28;20073;-55
2022/04/29 11:42:53;;;;;;;4.47;1.10;;;21.70;54.50;;;;;;4992877;28;20065;-56
2022/04/29 11:45:23;;;;;;;9.02;2.25;;;21.70;54.40;;;;;;4993016;28;20474;-55
2022/04/29 11:47:48;;;;;;;5.72;1.38;;;21.70;54.40;;;;;;4992481;28;20051;-56
2022/04/29 11:50:14;;;;;;;4.60;1.10;;;21.70;54.40;;;;;;4992505;28;20042;-55
2022/04/29 11:52:39;;;;;;;5.60;1.30;;;21.70;54.30;;;;;;4992907;28;20046;-56
2022/04/29 11:55:16;;;;;;;5.80;1.30;;;21.70;54.30;;;;;;4992237;28;20053;-55
2022/04/29 11:57:47;;;;;;;7.93;1.40;;;21.70;54.30;;;;;;4992728;28;20042;-56
2022/04/29 12:00:24;;;;;;;5.55;1.40;;;21.70;54.00;;;;;;4993212;28;20042;-55
2022/04/29 12:02:50;;;;;;;5.25;1.50;;;21.70;53.90;;;;;;4992413;28;20042;-55
2022/04/29 12:05:16;;;;;;;5.80;1.40;;;21.70;53.80;;;;;;4986123;28;20130;-55
2022/04/29 12:07:47;;;;;;;4.75;1.40;;;21.70;53.70;;;;;;4985129;28;20039;-55
2022/04/29 12:10:17;;;;;;;4.40;1.48;;;21.70;53.60;;;;;;4990575;28;20520;-55
2022/04/29 12:12:42;;;;;;;4.90;1.60;;;21.70;53.60;;;;;;4991305;28;20035;-55
2022/04/29 12:15:10;;;;;;;4.97;1.23;;;21.70;53.60;;;;;;4991618;28;20043;-55
2022/04/29 12:17:36;;;;;;;;;;;21.70;53.60;;;;;;4993053;28;20049;-55
2022/04/29 12:20:03;;;;;;;5.55;1.42;;;21.60;53.30;;;;;;4992204;28;19929;-55
2022/04/29 12:22:31;;;;;;;5.28;1.55;;;21.60;53.30;;;;;;4992444;28;20490;-55
2022/04/29 12:24:57;;;;;;;4.23;1.40;;;21.70;53.10;;;;;;4992516;28;20040;-56
2022/04/29 12:27:32;;;;;;;5.47;1.40;;;21.70;53.00;;;;;;4992694;28;20310;-56
2022/04/29 12:35:27;;;;;;;6.03;1.33;;;21.70;52.50;;;;;;4992918;28;20042;-55
2022/04/29 12:37:53;;;;;;;5.65;1.30;;;21.60;52.30;;;;;;4991968;28;20498;-55
2022/04/29 12:40:25;;;;;;;5.57;1.30;;;21.70;52.30;;;;;;4992351;28;20042;-55
2022/04/29 12:42:51;;;;;;;6.18;1.20;;;21.60;52.20;;;;;;4991944;28;20483;-55
2022/04/29 12:45:22;;;;;;;5.88;1.48;;;21.60;52.20;;;;;;4992768;28;20039;-56
2022/04/29 12:47:54;;;;;;;6.90;1.25;;;21.60;52.20;;;;;;4978233;28;20121;-55
2022/04/29 12:50:28;;;;;;;8.75;1.80;;;21.60;52.10;;;;;;4995778;28;20053;-56
2022/04/29 12:53:12;;;;;;;5.07;1.10;;;21.60;52.20;;;;;;4995911;28;20050;-55
2022/04/29 12:55:46;;;;;;;5.82;1.60;;;21.60;52.10;;;;;;4995939;28;20039;-55
2022/04/29 12:58:16;;;;;;;4.68;1.35;;;21.60;51.80;;;;;;4995519;28;20135;-57
2022/04/29 13:00:44;;;;;;;7.68;1.42;;;21.60;51.20;;;;;;4995102;28;20371;-55
2022/04/29 13:03:30;;;;;;;5.90;1.27;;;21.60;51.10;;;;;;4996044;28;20047;-56
2022/04/29 13:06:06;;;;;;;5.00;1.27;;;21.60;50.30;;;;;;4994730;28;20386;-56
2022/04/29 13:08:32;;;;;;;3.92;1.17;;;21.50;50.30;;;;;;4995787;28;20042;-56
2022/04/29 13:10:58;;;;;;;3.05;1.20;;;21.50;50.40;;;;;;4994914;28;20325;-55
2022/04/29 13:13:26;;;;;;;5.47;1.88;;;21.50;51.20;;;;;;4995827;28;20054;-55